Other Surface Observations
Issued by NWS Great Falls, MT

Home | Current Version | Previous Version | Text Only | Print | Product List | Glossary On
Versions: 1 2 3 4 5 6 7 8 9 10 11 12 13 14 15 16 17 18 19 20 21 22 23 24 25 26 27 28 29 30 31 32 33 34 35 36 37 38 39 40 41 42 43 44 45 46 47 48 49 50
039
SXUS55 KTFX 081830
OSOTFX
AREA AWOS OBSERVATIONS
NATIONAL WEATHER SERVICE GREAT FALLS MT
1129 AM MST THU DEC 08 2016

METAR KPWD 081830Z AUTO 31010KT 5SM M21/M24 A3062 RMK PLENTYWOOD
METAR KPO1 081830Z AUTO 29004KT 10SM M18/M23 A3067 RMK POPLAR
METAR K1S3 081830Z AUTO 04003KT 10SM M15/M19 A3059 RMK FORSYTH
METAR KS71 081830Z AUTO 25003KT 10SM M19/M23 A3064 RMK CHINOOK
METAR K38S 081830Z AUTO 13005KT 10SM M12/M18 A3024 RMK DEER LODGE
METAR K3U3 081830Z AUTO 23005KT 10SM M13/M19 A3019 RMK ANACONDA
METAR K6S5 081830Z AUTO 17003KT 10SM M12/M17 A3029 RMK HAMILTON
METAR KS59 081830Z AUTO 00000KT 10SM M12/M16 A3041 RMK LIBBY
METAR K88M 081830Z AUTO 00000KT 5SM M19/M22 A3047 RMK EUREKA



USA.gov is the U.S. government's official web portal to all federal, state and local government web resources and services.